Etusivu
METAR-TAF:

METAR-TAF

Lentoasemat :

Philip Billard Municipal Airport

Topeka, Kansas, Yhdysvallat

Leveyspiiri: 39-04-21N, Pituuspiiri: 095-37-33W, korkeus merenpinnasta: 268 m

Tämänhetkinen sää

Tämä raportti tehtiin 15 minuuttia sitten, kello 04.53 UTC
tyyntä
Lämpötila 24°C
Kosteus 83%
Ilmanpaine 1022 hPa
Näkyvyys: 16.1 km
selkeää

METAR: KTOP 210453Z AUTO 00000KT 10SM CLR 24/21 A3018 RMK AO2 SLP210 T02440211

Aika: 00:08 (05:08 UTC)

Sääennuste

Tämä raportti tehtiin 5 tuntia ja 48 minuuttia sitten, kello 23.20 UTC
Ennuste voimassa 21. päivästä klo 00 UTC - 21. päivään klo 24 UTC
Tuuli 6 kn etelästä/kaakosta
Näkyvyys: 10 km
Muutamia pilviä 4000 ft:n korkeudessa

TAF: KTOP 202320Z 2100/2124 16006KT P6SM FEW040

Säähavainnot ja -ennusteet yli 4000 lentoasemalta (METAR- ja TAF-raportit).

Käytössä olevat sääasemat on merkitty karttaan keltaisilla ja punaisilla pisteillä.

Aseta hiiri pisteen päälle nähdäksesi sääaseman nimen.

Klikkaa sitten nähdäksesi säähavainnot ja -ennusteet.

Kartan vaihtaminen: klikkaa mustalla rastilla varustettuja vihreitä pisteitä, niin voit zoomata sisään; viivalla varustettua vihreää pistettä, niin voit zoomata ulos tai vihreitä nuolia, niin pääset viereisille kartoille.


METAR-TAF: